createdAt,value
2022-11-04T00:02:19.024Z,6.43
2022-11-04T00:04:46.936Z,7.30
2022-11-04T00:07:28.603Z,6.80
2022-11-04T00:09:56.595Z,6.73
2022-11-04T00:12:26.013Z,7.13
2022-11-04T00:15:16.307Z,6.10
2022-11-04T00:17:43.232Z,5.33
2022-11-04T00:20:28.566Z,5.20
2022-11-04T00:23:13.842Z,4.77
2022-11-04T00:25:58.937Z,4.80
2022-11-04T00:28:44.607Z,5.10
2022-11-04T00:31:31.454Z,5.10
2022-11-04T00:33:59.749Z,5.00
2022-11-04T00:36:27.385Z,4.77
2022-11-04T00:38:55.262Z,4.70
2022-11-04T00:41:30.176Z,4.30
2022-11-04T00:43:59.233Z,4.33
2022-11-04T00:46:28.593Z,4.53
2022-11-04T00:48:56.944Z,4.07
2022-11-04T00:51:24.719Z,4.67
2022-11-04T00:53:53.045Z,4.40
2022-11-04T00:56:20.905Z,3.80
2022-11-04T00:58:50.003Z,3.80
2022-11-04T01:01:18.518Z,3.37
2022-11-04T01:03:48.998Z,2.53
2022-11-04T01:06:16.579Z,3.10
2022-11-04T01:08:45.237Z,3.27
2022-11-04T01:11:13.129Z,2.63
2022-11-04T01:13:41.125Z,2.93
2022-11-04T01:16:10.393Z,3.43
2022-11-04T01:18:38.697Z,3.00
2022-11-04T01:21:08.766Z,2.37
2022-11-04T01:23:37.050Z,2.90
2022-11-04T01:26:05.841Z,2.83
2022-11-04T01:28:33.398Z,3.20
2022-11-04T01:31:01.444Z,3.00
2022-11-04T01:33:30.077Z,3.33
2022-11-04T01:36:00.660Z,3.73
2022-11-04T01:38:29.656Z,4.07
2022-11-04T01:40:57.839Z,3.50
2022-11-04T01:43:43.498Z,3.43
2022-11-04T01:46:12.987Z,3.63
2022-11-04T01:48:41.665Z,3.90
2022-11-04T01:51:09.754Z,3.47
2022-11-04T01:53:41.158Z,2.97
2022-11-04T01:56:12.225Z,3.00
2022-11-04T01:58:41.567Z,2.80
2022-11-04T02:01:10.016Z,3.10
2022-11-04T02:03:41.107Z,3.43
2022-11-04T02:06:09.083Z,3.50
2022-11-04T02:08:39.173Z,2.70
2022-11-04T02:11:06.928Z,3.20
2022-11-04T02:13:34.189Z,2.60
2022-11-04T02:16:06.475Z,2.60
2022-11-04T02:18:45.474Z,2.67
2022-11-04T02:21:24.196Z,2.67
2022-11-04T02:24:07.169Z,3.60
2022-11-04T02:26:51.486Z,3.00
2022-11-04T02:29:27.993Z,2.40
2022-11-04T02:31:59.893Z,2.27
2022-11-04T02:34:31.997Z,2.37
2022-11-04T02:37:03.506Z,2.67
2022-11-04T02:39:35.981Z,3.00
2022-11-04T02:42:07.968Z,1.43
2022-11-04T02:44:39.363Z,1.70
2022-11-04T02:47:08.453Z,1.40
2022-11-04T02:49:39.633Z,1.63
2022-11-04T02:52:08.985Z,1.70
2022-11-04T02:54:38.650Z,1.67
2022-11-04T02:57:08.553Z,1.87
2022-11-04T02:59:39.697Z,1.40
2022-11-04T03:02:09.456Z,1.40
2022-11-04T03:04:40.059Z,1.53
2022-11-04T03:07:09.132Z,1.30
2022-11-04T03:09:37.959Z,1.03
2022-11-04T03:12:08.706Z,1.50
2022-11-04T03:14:40.943Z,1.20
2022-11-04T03:17:11.870Z,1.10
2022-11-04T03:19:42.092Z,1.10
2022-11-04T03:22:14.773Z,1.93
2022-11-04T03:24:43.562Z,1.97
2022-11-04T03:27:15.358Z,1.67
2022-11-04T03:29:48.091Z,1.80
2022-11-04T03:32:20.442Z,1.83
2022-11-04T03:34:48.286Z,1.63
2022-11-04T03:37:16.331Z,1.67
2022-11-04T03:39:44.444Z,1.33
2022-11-04T03:42:21.380Z,1.20
2022-11-04T03:44:51.867Z,1.47
2022-11-04T03:47:22.409Z,1.50
2022-11-04T03:49:50.995Z,1.63
2022-11-04T03:52:19.084Z,1.17
2022-11-04T03:54:47.371Z,1.53
2022-11-04T03:57:32.742Z,1.40
2022-11-04T04:00:09.160Z,1.93
2022-11-04T04:02:43.138Z,1.50
2022-11-04T04:05:17.639Z,1.70
2022-11-04T04:07:49.739Z,1.60
2022-11-04T04:10:37.425Z,1.50
2022-11-04T04:13:08.768Z,1.40
2022-11-04T04:15:43.136Z,1.40
2022-11-04T04:18:13.770Z,1.07
2022-11-04T04:20:41.952Z,1.13
2022-11-04T04:23:26.710Z,1.27
2022-11-04T04:26:12.588Z,0.93
2022-11-04T04:28:41.151Z,1.27
2022-11-04T04:31:12.692Z,1.10
2022-11-04T04:33:40.735Z,1.10
2022-11-04T04:36:09.996Z,1.47
2022-11-04T04:39:00.603Z,1.40
2022-11-04T04:41:46.882Z,1.20
2022-11-04T04:44:33.367Z,1.07
2022-11-04T04:47:03.698Z,1.00
2022-11-04T04:49:35.604Z,1.10
2022-11-04T04:52:04.002Z,1.80
2022-11-04T04:54:31.713Z,1.07
2022-11-04T04:56:59.712Z,1.17
2022-11-04T04:59:30.214Z,1.20
2022-11-04T05:01:58.427Z,1.00
2022-11-04T05:04:27.596Z,1.20
2022-11-04T05:06:56.051Z,1.57
2022-11-04T05:09:23.724Z,1.20
2022-11-04T05:11:51.761Z,1.50
2022-11-04T05:14:20.107Z,1.30
2022-11-04T05:16:47.956Z,1.40
2022-11-04T05:19:16.556Z,1.27
2022-11-04T05:21:45.937Z,1.53
2022-11-04T05:24:14.122Z,1.87
2022-11-04T05:26:42.004Z,1.20
2022-11-04T05:29:10.730Z,1.30
2022-11-04T05:31:38.374Z,1.67
2022-11-04T05:34:06.369Z,1.10
2022-11-04T05:36:34.763Z,1.00
2022-11-04T05:39:04.280Z,1.30
2022-11-04T05:41:31.803Z,1.53
2022-11-04T05:44:01.243Z,1.30
2022-11-04T05:46:29.196Z,2.00
2022-11-04T05:48:57.424Z,1.43
2022-11-04T05:51:26.136Z,1.33
2022-11-04T05:53:54.936Z,1.50
2022-11-04T05:56:23.832Z,1.10
2022-11-04T05:58:51.372Z,1.30
2022-11-04T06:01:30.408Z,1.07
2022-11-04T06:03:59.009Z,1.00
2022-11-04T06:06:27.765Z,1.20
2022-11-04T06:08:55.504Z,1.70
2022-11-04T06:11:25.543Z,1.30
2022-11-04T06:13:55.189Z,1.10
2022-11-04T06:16:23.029Z,1.60
2022-11-04T06:18:51.017Z,1.27
2022-11-04T06:21:25.301Z,1.00
2022-11-04T06:23:54.123Z,1.00
2022-11-04T06:26:27.871Z,1.20
2022-11-04T06:28:57.806Z,1.40
2022-11-04T06:31:26.243Z,1.67
2022-11-04T06:33:54.336Z,1.30
2022-11-04T06:36:21.954Z,1.50
2022-11-04T06:38:49.801Z,1.57
2022-11-04T06:41:19.737Z,1.40
2022-11-04T06:43:49.710Z,1.63
2022-11-04T06:46:29.785Z,1.80
2022-11-04T06:48:58.066Z,1.67
2022-11-04T06:51:25.974Z,2.07
2022-11-04T06:53:53.826Z,1.97
2022-11-04T06:56:22.255Z,1.47
2022-11-04T06:58:50.274Z,1.40
2022-11-04T07:01:22.050Z,1.40
2022-11-04T07:03:51.806Z,1.73
2022-11-04T07:06:20.259Z,1.50
2022-11-04T07:08:47.967Z,1.90
2022-11-04T07:11:15.690Z,1.83
2022-11-04T07:13:43.642Z,3.50
2022-11-04T07:16:11.368Z,2.43
2022-11-04T07:18:39.403Z,3.50
2022-11-04T07:21:10.232Z,2.80
2022-11-04T07:23:38.805Z,3.37
2022-11-04T07:26:07.887Z,2.97
2022-11-04T07:28:35.659Z,3.00
2022-11-04T07:31:04.276Z,2.40
2022-11-04T07:33:37.387Z,3.00
2022-11-04T07:36:06.014Z,2.20
2022-11-04T07:38:35.811Z,3.27
2022-11-04T07:41:03.777Z,3.67
2022-11-04T07:43:31.584Z,5.43
2022-11-04T07:46:00.201Z,3.30
2022-11-04T07:48:27.840Z,2.97
2022-11-04T07:50:57.008Z,4.30
2022-11-04T07:53:25.543Z,3.60
2022-11-04T07:55:55.482Z,4.00
2022-11-04T07:58:23.989Z,5.80
2022-11-04T08:00:51.701Z,4.83
2022-11-04T08:03:19.449Z,4.87
2022-11-04T08:05:47.090Z,4.60
2022-11-04T08:08:15.191Z,4.40
2022-11-04T08:10:43.332Z,3.80
2022-11-04T08:13:12.589Z,4.17
2022-11-04T08:15:40.229Z,3.73
2022-11-04T08:18:07.759Z,3.70
2022-11-04T08:20:36.541Z,3.40
2022-11-04T08:23:04.486Z,3.07
2022-11-04T08:25:32.587Z,3.20
2022-11-04T08:28:01.211Z,3.93
2022-11-04T08:30:30.957Z,3.43
2022-11-04T08:33:02.630Z,3.90
2022-11-04T08:35:31.335Z,4.07
2022-11-04T08:38:00.605Z,4.53
2022-11-04T08:40:28.122Z,3.73
2022-11-04T08:42:55.628Z,5.80
2022-11-04T08:45:23.138Z,5.10
2022-11-04T08:47:52.738Z,4.40
2022-11-04T08:50:21.089Z,4.10
2022-11-04T08:52:48.695Z,3.67
2022-11-04T08:55:16.784Z,3.43
2022-11-04T08:57:44.945Z,2.77
2022-11-04T09:00:13.270Z,2.83
2022-11-04T09:02:40.820Z,1.80
2022-11-04T09:05:10.449Z,2.20
2022-11-04T09:07:38.441Z,2.17
2022-11-04T09:10:07.113Z,2.20
2022-11-04T09:12:34.641Z,2.40
2022-11-04T09:15:02.285Z,2.47
2022-11-04T09:17:29.865Z,2.73
2022-11-04T09:19:57.458Z,2.57
2022-11-04T09:22:26.433Z,3.20
2022-11-04T09:24:54.417Z,3.77
2022-11-04T09:27:22.613Z,2.97
2022-11-04T09:29:51.379Z,3.10
2022-11-04T09:32:19.063Z,2.70
2022-11-04T09:34:47.357Z,3.10
2022-11-04T09:37:15.794Z,3.40
2022-11-04T09:39:49.980Z,4.80
2022-11-04T09:42:29.902Z,3.53
2022-11-04T09:45:20.748Z,2.77
2022-11-04T09:47:50.864Z,2.97
2022-11-04T09:50:21.979Z,3.00
2022-11-04T09:52:52.930Z,3.93
2022-11-04T09:55:24.513Z,2.90
2022-11-04T09:57:55.713Z,2.57
2022-11-04T10:00:23.556Z,2.50
2022-11-04T10:02:56.036Z,2.50
2022-11-04T10:05:33.961Z,2.03
2022-11-04T10:08:07.942Z,2.67
2022-11-04T10:10:41.571Z,2.50
2022-11-04T10:13:15.176Z,3.10
2022-11-04T10:15:49.344Z,2.80
2022-11-04T10:18:23.024Z,2.80
2022-11-04T10:20:55.199Z,2.87
2022-11-04T10:23:24.644Z,2.80
2022-11-04T10:25:57.735Z,2.53
2022-11-04T10:28:28.942Z,2.10
2022-11-04T10:30:56.916Z,1.70
2022-11-04T10:33:29.637Z,2.43
2022-11-04T10:36:00.330Z,1.80
2022-11-04T10:38:33.718Z,2.20
2022-11-04T10:41:07.061Z,2.23
2022-11-04T10:43:36.932Z,1.90
2022-11-04T10:46:10.622Z,2.37
2022-11-04T10:48:41.727Z,2.17
2022-11-04T10:51:09.281Z,2.00
2022-11-04T10:53:38.271Z,2.23
2022-11-04T10:56:09.802Z,3.00
2022-11-04T10:58:40.695Z,2.10
2022-11-04T11:01:24.495Z,2.23
2022-11-04T11:03:52.048Z,2.80
2022-11-04T11:06:26.270Z,1.90
2022-11-04T11:08:55.174Z,1.83
2022-11-04T11:11:37.832Z,1.90
2022-11-04T11:14:06.084Z,1.60
2022-11-04T11:16:33.865Z,1.37
2022-11-04T11:19:15.714Z,1.53
2022-11-04T11:21:44.614Z,0.83
2022-11-04T11:24:17.256Z,0.97
2022-11-04T11:26:49.283Z,1.07
2022-11-04T11:29:21.779Z,1.77
2022-11-04T11:31:49.874Z,1.10
2022-11-04T11:34:20.463Z,1.30
2022-11-04T11:36:48.322Z,1.17
2022-11-04T11:39:17.665Z,0.80
2022-11-04T11:41:54.861Z,0.97
2022-11-04T11:44:27.565Z,0.90
2022-11-04T11:46:56.301Z,1.20
2022-11-04T11:49:25.397Z,1.47
2022-11-04T11:51:53.102Z,0.90
2022-11-04T11:54:23.957Z,0.97
2022-11-04T12:02:43.052Z,0.80
2022-11-04T12:10:56.910Z,1.33
2022-11-04T12:13:30.900Z,1.27
2022-11-04T12:16:08.048Z,0.87
2022-11-04T12:18:46.097Z,1.00
2022-11-04T12:21:16.607Z,0.93
2022-11-04T12:23:51.415Z,0.80
2022-11-04T12:26:26.405Z,0.87
2022-11-04T12:29:07.647Z,0.90
2022-11-04T12:31:41.029Z,0.77
2022-11-04T12:34:13.626Z,1.37
2022-11-04T12:39:45.666Z,0.97
2022-11-04T12:42:21.880Z,0.93
2022-11-04T12:44:56.315Z,0.57
2022-11-04T12:47:30.086Z,0.90
2022-11-04T12:50:16.349Z,0.90
2022-11-04T12:52:53.181Z,1.00
2022-11-04T12:55:27.404Z,1.00
2022-11-04T12:57:57.937Z,0.70
2022-11-04T13:00:29.322Z,0.93
2022-11-04T13:03:01.478Z,0.90
2022-11-04T13:05:34.239Z,0.90
2022-11-04T13:08:08.687Z,1.00
2022-11-04T13:10:44.189Z,1.10
2022-11-04T13:13:13.447Z,1.20
2022-11-04T13:15:46.480Z,1.20
2022-11-04T13:18:22.485Z,1.03
2022-11-04T13:20:56.760Z,1.47
2022-11-04T13:23:30.024Z,0.80
2022-11-04T13:25:59.247Z,1.20
2022-11-04T13:28:27.886Z,1.00
2022-11-04T13:31:00.783Z,1.20
2022-11-04T13:33:35.843Z,1.10
2022-11-04T13:36:13.053Z,1.30
2022-11-04T13:38:45.615Z,1.80
2022-11-04T13:41:35.153Z,1.60
2022-11-04T13:44:05.363Z,1.30
2022-11-04T13:46:35.701Z,0.90
2022-11-04T13:49:06.671Z,1.30
2022-11-04T13:51:45.678Z,1.63
2022-11-04T13:54:29.867Z,1.27
2022-11-04T13:57:05.664Z,1.07
2022-11-04T13:59:36.187Z,1.00
2022-11-04T14:02:25.695Z,1.00
2022-11-04T14:04:55.838Z,1.10
2022-11-04T14:07:46.742Z,1.50
2022-11-04T14:10:30.102Z,1.30
2022-11-04T14:13:18.512Z,1.20
2022-11-04T14:16:00.047Z,1.23
2022-11-04T14:18:42.252Z,1.00
2022-11-04T14:21:13.281Z,1.00
2022-11-04T14:23:42.280Z,0.80
2022-11-04T14:26:11.186Z,1.30
2022-11-04T14:28:39.517Z,1.50
2022-11-04T14:31:14.025Z,1.93
2022-11-04T14:33:51.364Z,1.20
2022-11-04T14:36:38.436Z,1.30
2022-11-04T14:39:09.482Z,1.07
2022-11-04T14:41:57.628Z,0.90
2022-11-04T14:44:31.265Z,1.20
2022-11-04T14:47:01.249Z,1.20
2022-11-04T14:49:37.692Z,1.63
2022-11-04T14:52:08.414Z,1.60
2022-11-04T14:54:37.732Z,1.47
2022-11-04T14:57:09.626Z,1.20
2022-11-04T14:59:37.520Z,1.53
2022-11-04T15:02:05.590Z,1.13
2022-11-04T15:04:33.596Z,2.50
2022-11-04T15:07:02.622Z,1.77
2022-11-04T15:09:35.332Z,2.37
2022-11-04T15:12:25.305Z,1.80
2022-11-04T15:14:53.728Z,1.90
2022-11-04T15:17:21.942Z,1.93
2022-11-04T15:19:51.094Z,2.57
2022-11-04T15:22:18.978Z,2.20
2022-11-04T15:24:51.035Z,1.97
2022-11-04T15:27:20.592Z,2.20
2022-11-04T15:29:55.045Z,2.60
2022-11-04T15:32:22.767Z,2.27
2022-11-04T15:34:51.139Z,3.90
2022-11-04T15:37:20.087Z,3.00
2022-11-04T15:39:50.943Z,2.80
2022-11-04T15:42:44.703Z,2.20
2022-11-04T15:45:27.915Z,2.20
2022-11-04T15:48:14.287Z,2.07
2022-11-04T15:50:43.023Z,2.57
2022-11-04T15:53:10.945Z,2.53
2022-11-04T15:55:41.077Z,2.37
2022-11-04T15:58:11.172Z,2.90
2022-11-04T16:00:39.418Z,3.23
2022-11-04T16:03:10.179Z,2.27
2022-11-04T16:05:39.897Z,2.53
2022-11-04T16:08:20.763Z,2.10
2022-11-04T16:10:51.525Z,2.33
2022-11-04T16:13:22.987Z,2.33
2022-11-04T16:15:54.053Z,2.27
2022-11-04T16:18:23.874Z,2.20
2022-11-04T16:20:53.528Z,1.70
2022-11-04T16:23:22.916Z,1.57
2022-11-04T16:25:57.919Z,1.43
2022-11-04T16:28:26.272Z,1.80
2022-11-04T16:30:57.512Z,1.40
2022-11-04T16:33:25.816Z,2.47
2022-11-04T16:35:53.574Z,2.50
2022-11-04T16:38:21.170Z,3.70
2022-11-04T16:40:49.471Z,3.27
2022-11-04T16:43:19.454Z,3.10
2022-11-04T16:45:53.581Z,3.00
2022-11-04T16:48:23.864Z,3.37
2022-11-04T16:50:51.484Z,4.03
2022-11-04T16:53:19.554Z,3.17
2022-11-04T17:07:02.523Z,4.80
2022-11-04T17:09:30.170Z,3.33
2022-11-04T17:11:57.875Z,3.00
2022-11-04T17:14:25.572Z,3.10
2022-11-04T17:16:53.640Z,2.50
2022-11-04T17:19:21.382Z,3.10
2022-11-04T17:21:49.172Z,2.87
2022-11-04T17:24:18.359Z,2.67
2022-11-04T17:26:46.515Z,1.90
2022-11-04T17:29:17.365Z,2.03
2022-11-04T17:31:45.899Z,1.90
2022-11-04T17:34:13.656Z,1.63
2022-11-04T17:36:41.456Z,1.90
2022-11-04T17:39:09.206Z,2.10
2022-11-04T17:41:55.736Z,2.30
2022-11-04T17:44:23.502Z,1.97
2022-11-04T17:46:51.301Z,1.70
2022-11-04T17:49:22.428Z,1.73
2022-11-04T17:51:53.664Z,1.60
2022-11-04T17:54:22.089Z,2.17
2022-11-04T17:56:51.145Z,2.90
2022-11-04T17:59:19.541Z,2.57
2022-11-04T18:01:47.651Z,2.47
2022-11-04T18:04:17.247Z,1.83
2022-11-04T18:06:45.842Z,2.43
2022-11-04T18:09:15.433Z,2.63
2022-11-04T18:12:01.002Z,2.80
2022-11-04T18:14:30.342Z,2.70
2022-11-04T18:16:58.482Z,3.00
2022-11-04T18:19:27.781Z,2.40
2022-11-04T18:21:55.535Z,2.00
2022-11-04T18:24:24.082Z,2.27
2022-11-04T18:26:52.158Z,2.33
2022-11-04T18:29:20.084Z,2.60
2022-11-04T18:31:50.082Z,2.70
2022-11-04T18:34:19.590Z,2.60
2022-11-04T18:36:48.247Z,2.80
2022-11-04T18:39:18.360Z,3.37
2022-11-04T18:41:46.719Z,4.30
2022-11-04T18:44:16.256Z,3.97
2022-11-04T18:46:44.015Z,2.83
2022-11-04T18:49:14.199Z,3.50
2022-11-04T18:51:42.372Z,3.97
2022-11-04T18:54:12.592Z,3.67
2022-11-04T18:56:40.876Z,4.13
2022-11-04T18:59:09.707Z,3.30
2022-11-04T19:01:37.886Z,2.93
2022-11-04T19:04:06.376Z,3.77
2022-11-04T19:06:41.442Z,4.23
2022-11-04T19:09:45.324Z,5.30
2022-11-04T19:12:18.265Z,4.33
2022-11-04T19:14:45.944Z,4.60
2022-11-04T19:17:14.062Z,3.57
2022-11-04T19:19:42.815Z,3.60
2022-11-04T19:22:12.749Z,3.80
2022-11-04T19:24:40.601Z,4.00
2022-11-04T19:27:08.621Z,5.10
2022-11-04T19:29:36.388Z,6.07
2022-11-04T19:32:06.254Z,6.03
2022-11-04T19:34:36.208Z,5.20
2022-11-04T19:37:03.898Z,5.30
2022-11-04T19:39:33.274Z,5.07
2022-11-04T19:42:18.469Z,5.77
2022-11-04T19:44:46.470Z,4.83
2022-11-04T19:47:14.219Z,5.60
2022-11-04T19:49:42.316Z,5.70
2022-11-04T19:52:10.729Z,6.20
2022-11-04T19:54:39.930Z,6.30
2022-11-04T19:57:07.666Z,5.73
2022-11-04T19:59:35.369Z,5.30
2022-11-04T20:02:03.767Z,5.50
2022-11-04T20:04:31.558Z,3.80
2022-11-04T20:06:59.815Z,4.00
2022-11-04T20:09:27.530Z,4.90
2022-11-04T20:12:14.317Z,4.40
2022-11-04T20:14:42.195Z,6.33
2022-11-04T20:17:09.927Z,6.23
2022-11-04T20:19:37.606Z,5.23
2022-11-04T20:22:05.323Z,6.43
2022-11-04T20:24:33.296Z,11.13
2022-11-04T20:27:02.737Z,7.67
2022-11-04T20:29:30.403Z,5.27
2022-11-04T20:31:58.790Z,5.50
2022-11-04T20:34:31.653Z,6.00
2022-11-04T20:37:01.998Z,6.33
2022-11-04T20:39:30.337Z,6.77
2022-11-04T20:41:58.033Z,5.33
2022-11-04T20:44:27.556Z,5.00
2022-11-04T20:46:55.217Z,5.30
2022-11-04T20:49:23.412Z,5.60
2022-11-04T20:51:55.451Z,5.07
2022-11-04T20:54:23.820Z,5.37
2022-11-04T20:56:51.706Z,5.30
2022-11-04T20:59:19.489Z,5.57
2022-11-04T21:01:50.494Z,5.47
2022-11-04T21:04:20.183Z,6.30
2022-11-04T21:06:49.460Z,6.70
2022-11-04T21:09:18.849Z,6.33
2022-11-04T21:11:46.869Z,6.30
2022-11-04T21:14:16.903Z,5.87
2022-11-04T21:16:45.184Z,8.07
2022-11-04T21:19:14.529Z,8.20
2022-11-04T21:21:43.210Z,10.50
2022-11-04T21:24:13.390Z,9.37
2022-11-04T21:26:41.333Z,8.77
2022-11-04T21:29:12.369Z,6.90
2022-11-04T21:31:40.702Z,6.60
2022-11-04T21:34:08.375Z,6.20
2022-11-04T21:36:38.496Z,14.77
2022-11-04T21:39:06.438Z,14.90
2022-11-04T21:41:37.287Z,17.40
2022-11-04T21:44:08.202Z,18.50
2022-11-04T21:46:36.981Z,12.50
2022-11-04T21:49:05.021Z,9.47
2022-11-04T21:51:34.238Z,9.17
2022-11-04T21:54:07.631Z,8.27
2022-11-04T21:56:36.158Z,8.57
2022-11-04T21:59:06.575Z,8.50
2022-11-04T22:01:35.166Z,9.20
2022-11-04T22:04:03.601Z,6.77
2022-11-04T22:06:35.103Z,7.17
2022-11-04T22:09:07.892Z,6.80
2022-11-04T22:11:38.919Z,6.43
2022-11-04T22:14:09.070Z,6.97
2022-11-04T22:16:39.096Z,7.17
2022-11-04T22:19:10.599Z,6.87
2022-11-04T22:21:39.938Z,6.57
2022-11-04T22:24:10.961Z,6.93
2022-11-04T22:26:39.224Z,6.60
2022-11-04T22:29:07.249Z,7.13
2022-11-04T22:31:37.849Z,5.80
2022-11-04T22:34:06.244Z,5.80
2022-11-04T22:36:34.544Z,6.60
2022-11-04T22:39:03.272Z,7.13
2022-11-04T22:41:34.721Z,6.83
2022-11-04T22:44:03.294Z,5.70
2022-11-04T22:46:35.082Z,6.30
2022-11-04T22:49:03.240Z,6.67
2022-11-04T22:51:32.836Z,6.10
2022-11-04T22:54:07.643Z,5.17
2022-11-04T22:56:37.868Z,6.00
2022-11-04T22:59:06.171Z,6.40
2022-11-04T23:01:34.586Z,6.20
2022-11-04T23:04:03.085Z,7.50
2022-11-04T23:06:31.029Z,6.93
2022-11-04T23:09:00.729Z,5.93
2022-11-04T23:11:48.618Z,7.67
2022-11-04T23:14:45.477Z,6.60
2022-11-04T23:17:34.184Z,8.10
2022-11-04T23:20:02.731Z,7.20
2022-11-04T23:22:47.822Z,7.23
2022-11-04T23:25:16.454Z,7.30
2022-11-04T23:28:16.089Z,9.07
2022-11-04T23:30:47.630Z,7.20
2022-11-04T23:33:16.306Z,8.23
2022-11-04T23:36:05.340Z,7.37
2022-11-04T23:38:35.293Z,7.90
2022-11-04T23:41:23.675Z,7.00
2022-11-04T23:43:52.026Z,8.20
2022-11-04T23:46:52.978Z,7.40
2022-11-04T23:49:38.529Z,7.53
2022-11-04T23:52:23.666Z,8.70
2022-11-04T23:55:09.245Z,8.40
2022-11-04T23:58:08.971Z,8.07
